Time;durP1;ratioP1;P1;durP2;ratioP2;P2;SDS_P1;SDS_P2;PMS_P1;PMS_P2;Temp;Humidity;BMP_temperature;BMP_pressure;BME280_temperature;BME280_humidity;BME280_pressure;Samples;Min_cycle;Max_cycle;Signal;HPM_P1;HPM_P2
2022/07/07 00:02:53;;;;;;;1.90;1.20;;;;;;;14.23;58.62;99763.77;444292;1278;142466;-59
2022/07/07 00:12:59;;;;;;;2.30;1.10;;;;;;;14.21;58.91;99753.79;444967;1279;142535;-60
2022/07/07 00:23:05;;;;;;;1.70;0.80;;;;;;;14.21;59.31;99750.40;444757;1277;142333;-58
2022/07/07 00:33:11;;;;;;;5.50;1.60;;;;;;;14.22;59.66;99743.98;445480;1277;144250;-59
2022/07/07 00:43:17;;;;;;;1.60;0.80;;;;;;;14.20;59.94;99734.65;445527;1277;142285;-60
2022/07/07 00:53:23;;;;;;;3.20;1.10;;;;;;;14.24;60.26;99731.17;444733;1277;142540;-59
2022/07/07 01:03:30;;;;;;;1.70;0.70;;;;;;;14.25;60.83;99730.52;445560;1277;143014;-59
2022/07/07 01:13:39;;;;;;;2.50;1.00;;;;;;;14.16;60.95;99730.02;445530;1277;142298;-60
2022/07/07 01:23:45;;;;;;;2.60;1.30;;;;;;;14.19;61.13;99729.82;444810;1277;142259;-60
2022/07/07 01:33:51;;;;;;;3.00;1.20;;;;;;;14.12;61.13;99721.34;445561;1277;142483;-60
2022/07/07 01:43:56;;;;;;;1.30;0.80;;;;;;;14.04;61.19;99726.68;444806;1279;184891;-60
2022/07/07 01:54:02;;;;;;;3.50;0.90;;;;;;;13.97;61.40;99732.65;444797;1277;142637;-60
2022/07/07 02:04:08;;;;;;;2.20;1.40;;;;;;;13.96;61.85;99725.92;445525;1277;142198;-60
2022/07/07 02:14:14;;;;;;;2.60;0.90;;;;;;;13.94;62.29;99722.89;444771;1277;142855;-60
2022/07/07 02:24:20;;;;;;;1.90;1.00;;;;;;;13.92;62.71;99716.33;445566;1277;142759;-60
2022/07/07 02:34:28;;;;;;;1.60;1.00;;;;;;;13.88;62.63;99722.92;445570;1277;199731;-61
2022/07/07 02:44:34;;;;;;;2.10;1.10;;;;;;;13.85;62.53;99721.27;444801;1277;142984;-59
2022/07/07 02:54:40;;;;;;;1.80;0.90;;;;;;;13.84;62.90;99718.48;445646;1277;142895;-59
2022/07/07 03:04:45;;;;;;;3.60;1.60;;;;;;;13.86;62.71;99717.82;445304;1279;142400;-59
2022/07/07 03:14:51;;;;;;;1.70;0.90;;;;;;;13.86;62.86;99722.23;444854;1277;142243;-59
2022/07/07 03:24:57;;;;;;;2.80;1.90;;;;;;;13.93;62.89;99714.85;445588;1277;142218;-60
2022/07/07 03:35:03;;;;;;;3.60;3.30;;;;;;;13.99;62.96;99708.75;445544;1277;145849;-59
2022/07/07 03:45:11;;;;;;;3.90;3.00;;;;;;;14.07;62.81;99705.91;445567;1277;144978;-59
2022/07/07 03:55:16;;;;;;;4.50;2.60;;;;;;;14.22;62.81;99703.02;445614;1277;142832;-59
2022/07/07 04:05:22;;;;;;;5.00;3.40;;;;;;;14.41;62.58;99700.42;444796;1277;142692;-59
2022/07/07 04:15:28;;;;;;;11.00;3.80;;;;;;;14.66;62.45;99697.24;445555;1278;144867;-61
2022/07/07 04:25:34;;;;;;;3.70;3.40;;;;;;;14.87;62.18;99690.33;445635;1277;142584;-60
2022/07/07 04:35:40;;;;;;;4.10;3.00;;;;;;;15.06;61.77;99690.11;444508;1278;144938;-60
2022/07/07 04:45:46;;;;;;;5.60;2.80;;;;;;;15.34;61.28;99688.87;445431;1278;143582;-60
2022/07/07 04:55:52;;;;;;;8.30;2.40;;;;;;;15.90;60.57;99692.89;445451;1278;143012;-60
2022/07/07 05:05:58;;;;;;;6.40;2.90;;;;;;;16.75;59.52;99694.77;444753;1277;144072;-59
2022/07/07 05:16:04;;;;;;;4.10;2.20;;;;;;;17.75;58.22;99689.80;445367;1278;142309;-59
2022/07/07 05:26:10;;;;;;;2.10;1.90;;;;;;;18.82;56.56;99676.41;444673;1277;142395;-59
2022/07/07 05:36:16;;;;;;;4.20;1.80;;;;;;;20.06;54.53;99672.67;445486;1278;142529;-59
2022/07/07 05:46:21;;;;;;;4.80;1.70;;;;;;;22.45;51.60;99668.36;445432;1278;141718;-59
2022/07/07 05:56:27;;;;;;;4.40;1.50;;;;;;;25.94;48.73;99670.61;444661;1278;141252;-60
2022/07/07 06:06:33;;;;;;;3.40;1.40;;;;;;;31.80;40.48;99665.55;445568;1277;142744;-61
2022/07/07 06:16:40;;;;;;;2.60;1.20;;;;;;;34.92;34.77;99656.33;445507;1278;143291;-62
2022/07/07 06:26:46;;;;;;;2.20;1.10;;;;;;;40.11;30.08;99643.59;444836;1277;141433;-59
2022/07/07 06:36:52;;;;;;;1.50;1.20;;;;;;;45.74;24.39;99631.70;445552;1277;141352;-61
2022/07/07 06:46:59;;;;;;;1.70;1.20;;;;;;;49.64;19.66;99622.10;445490;1277;141926;-61
2022/07/07 06:57:05;;;;;;;2.00;1.20;;;;;;;48.88;17.27;99614.39;445300;1278;142542;-61
2022/07/07 07:07:11;;;;;;;2.60;1.70;;;;;;;49.76;15.80;99611.23;445579;1277;142379;-61
2022/07/07 07:17:16;;;;;;;3.30;3.10;;;;;;;50.54;14.59;99616.23;444754;1278;142275;-61
2022/07/07 07:27:22;;;;;;;3.90;3.60;;;;;;;51.86;13.62;99613.50;445575;1277;189098;-60
2022/07/07 07:37:28;;;;;;;3.70;3.60;;;;;;;53.28;12.70;99610.91;445470;1278;142271;-60
2022/07/07 07:47:34;;;;;;;4.20;3.90;;;;;;;50.15;12.82;99594.30;444757;1277;143282;-60
2022/07/07 07:57:40;;;;;;;1.30;0.50;;;;;;;48.71;12.26;99596.50;445500;1277;143660;-60
2022/07/07 08:07:46;;;;;;;4.30;0.70;;;;;;;41.09;14.21;99583.89;445540;1277;142045;-61
2022/07/07 08:17:52;;;;;;;2.00;0.70;;;;;;;34.30;17.74;99588.60;444357;1279;143084;-60
2022/07/07 08:27:58;;;;;;;2.30;0.50;;;;;;;29.81;21.17;99602.00;445096;1279;142923;-60
2022/07/07 08:38:04;;;;;;;2.80;0.90;;;;;;;28.60;22.76;99603.70;444944;1278;141286;-59
2022/07/07 08:48:10;;;;;;;3.90;0.70;;;;;;;26.34;24.99;99610.80;445242;1277;197228;-60
2022/07/07 08:58:19;;;;;;;3.90;0.60;;;;;;;25.08;27.13;99615.80;445448;1277;143005;-59
2022/07/07 09:08:44;;;;;;;2.10;0.70;;;;;;;25.40;27.42;99608.66;444766;1277;142363;-61
2022/07/07 09:18:50;;;;;;;4.30;0.60;;;;;;;26.33;26.54;99593.06;445630;1277;143210;-60
2022/07/07 09:29:00;;;;;;;0.70;0.40;;;;;;;25.55;27.05;99596.05;445711;1277;141935;-61
2022/07/07 09:39:07;;;;;;;1.80;0.40;;;;;;;25.70;26.87;99588.21;445630;1276;140913;-61
2022/07/07 09:49:13;;;;;;;3.80;0.60;;;;;;;25.15;27.58;99589.77;445568;1277;142824;-60
2022/07/07 09:59:21;;;;;;;1.40;0.80;;;;;;;25.84;26.94;99585.31;444655;1277;227069;-60
2022/07/07 10:09:27;;;;;;;2.50;1.20;;;;;;;25.98;26.40;99576.96;445598;1277;141997;-61
2022/07/07 10:19:32;;;;;;;3.50;1.00;;;;;;;26.69;26.76;99575.38;445799;1277;142542;-60
2022/07/07 10:29:42;;;;;;;0.70;0.40;;;;;;;27.35;26.13;99572.05;444972;1277;142832;-61
2022/07/07 10:39:50;;;;;;;2.40;0.60;;;;;;;26.98;26.18;99571.66;445743;1277;142339;-60
2022/07/07 10:49:58;;;;;;;3.00;0.70;;;;;;;26.33;26.37;99567.83;445770;1277;142156;-60
2022/07/07 11:00:09;;;;;;;1.40;0.30;;;;;;;25.89;26.61;99558.13;444959;1276;201621;-61
2022/07/07 11:10:16;;;;;;;3.50;0.50;;;;;;;26.24;26.48;99552.61;445608;1277;197816;-61
2022/07/07 11:20:23;;;;;;;1.60;0.70;;;;;;;25.53;26.87;99555.64;444745;1277;141966;-61
2022/07/07 11:30:29;;;;;;;6.70;0.60;;;;;;;25.25;27.67;99553.84;445446;1277;142459;-61
2022/07/07 11:40:38;;;;;;;1.80;0.60;;;;;;;25.63;27.83;99545.95;445527;1277;143111;-61
2022/07/07 11:50:45;;;;;;;1.30;0.40;;;;;;;25.71;28.03;99541.17;444722;1277;142559;-61
2022/07/07 12:00:55;;;;;;;0.50;0.40;;;;;;;25.80;27.54;99538.54;445413;1277;143261;-61
2022/07/07 12:11:02;;;;;;;7.90;0.90;;;;;;;25.99;27.71;99529.16;441436;1277;143163;-61
2022/07/07 12:21:10;;;;;;;1.80;0.40;;;;;;;26.11;27.73;99518.80;445471;1277;143052;-60
2022/07/07 12:31:20;;;;;;;1.00;0.90;;;;;;;26.04;27.74;99523.02;445529;1277;141171;-60
2022/07/07 12:41:28;;;;;;;4.00;0.70;;;;;;;26.05;27.82;99520.29;444483;1277;158750;-60
2022/07/07 12:51:34;;;;;;;4.60;1.20;;;;;;;25.63;28.25;99518.98;445282;1277;141686;-60
2022/07/07 13:01:41;;;;;;;0.60;0.60;;;;;;;25.45;28.50;99513.05;445632;1277;141749;-61
2022/07/07 13:11:49;;;;;;;4.40;1.00;;;;;;;25.76;28.40;99502.27;444831;1277;142278;-61
2022/07/07 13:21:55;;;;;;;1.30;0.60;;;;;;;25.25;28.88;99503.79;445588;1277;142589;-59
2022/07/07 13:32:01;;;;;;;1.20;0.90;;;;;;;24.99;28.70;99497.33;445605;1277;142492;-61
2022/07/07 13:42:08;;;;;;;2.40;0.60;;;;;;;24.58;29.57;99497.13;445552;1277;142349;-60
2022/07/07 13:52:15;;;;;;;0.70;0.70;;;;;;;24.55;30.02;99495.30;445589;1276;142033;-61
2022/07/07 14:02:21;;;;;;;4.10;2.00;;;;;;;24.76;29.67;99485.70;444644;1276;142854;-60
2022/07/07 14:12:36;;;;;;;3.50;0.80;;;;;;;24.60;29.64;99485.96;445611;1277;141505;-60
2022/07/07 14:22:43;;;;;;;1.80;1.30;;;;;;;24.48;29.53;99479.42;445236;1277;146506;-61
2022/07/07 14:32:48;;;;;;;3.20;0.80;;;;;;;24.69;29.26;99473.41;444522;1278;141568;-61
2022/07/07 14:42:54;;;;;;;2.40;0.80;;;;;;;24.79;29.31;99473.33;445355;1278;142448;-60
2022/07/07 14:53:00;;;;;;;1.60;0.60;;;;;;;25.21;28.85;99472.27;438611;1277;192283;-60
2022/07/07 15:03:06;;;;;;;0.90;0.80;;;;;;;24.96;28.85;99475.92;437566;1277;141961;-60
2022/07/07 15:13:14;;;;;;;3.50;0.80;;;;;;;24.39;29.16;99479.02;432763;1279;141770;-60
2022/07/07 15:23:29;;;;;;;0.90;0.60;;;;;;;24.32;29.44;99480.50;437047;1280;142594;-60
2022/07/07 15:33:36;;;;;;;3.30;1.10;;;;;;;24.10;29.73;99479.39;444706;1280;141928;-61
2022/07/07 15:43:43;;;;;;;2.10;0.80;;;;;;;24.11;30.01;99472.68;445247;1277;142907;-60
2022/07/07 15:53:50;;;;;;;1.20;0.90;;;;;;;24.47;29.82;99472.72;444568;1278;143186;-61
2022/07/07 16:14:19;;;;;;;5.10;1.10;;;;;;;24.43;29.91;99478.17;444590;1279;141577;-60
2022/07/07 16:24:25;;;;;;;0.70;0.70;;;;;;;24.34;30.27;99477.30;445325;1277;142121;-61
2022/07/07 16:34:30;;;;;;;3.80;0.90;;;;;;;24.31;31.18;99475.38;445426;1277;141601;-60
2022/07/07 16:44:36;;;;;;;4.60;1.00;;;;;;;24.00;31.60;99479.89;443548;1279;141935;-62
2022/07/07 16:54:42;;;;;;;1.50;0.80;;;;;;;23.67;31.68;99478.23;445154;1278;142065;-61
2022/07/07 17:04:48;;;;;;;0.60;0.40;;;;;;;23.13;32.67;99482.58;445425;1277;141983;-61
2022/07/07 17:14:54;;;;;;;1.00;0.70;;;;;;;22.67;33.55;99494.15;444720;1277;196496;-61
2022/07/07 17:24:59;;;;;;;1.80;0.60;;;;;;;21.90;35.10;99497.95;444734;1279;141534;-61
2022/07/07 17:35:07;;;;;;;1.40;0.40;;;;;;;21.35;36.22;99506.64;444082;1279;142055;-59
2022/07/07 17:45:13;;;;;;;0.60;0.60;;;;;;;21.03;37.06;99510.51;445636;1277;141908;-60
2022/07/07 17:55:19;;;;;;;2.70;0.60;;;;;;;20.74;37.72;99512.36;445615;1278;141722;-60
2022/07/07 18:05:25;;;;;;;2.40;1.60;;;;;;;20.46;38.39;99512.34;444869;1277;142546;-60
2022/07/07 18:15:32;;;;;;;6.70;1.70;;;;;;;20.24;39.28;99510.93;445631;1277;187892;-60
2022/07/07 18:25:38;;;;;;;5.40;1.50;;;;;;;20.04;40.27;99518.55;444968;1276;141993;-60
2022/07/07 18:35:44;;;;;;;7.50;1.50;;;;;;;19.81;40.95;99523.84;444915;1277;142280;-60
2022/07/07 18:45:50;;;;;;;1.40;0.80;;;;;;;19.68;41.66;99524.89;445484;1278;141879;-60
2022/07/07 18:55:56;;;;;;;7.40;1.50;;;;;;;19.52;42.19;99534.31;445652;1277;141567;-60
2022/07/07 19:06:01;;;;;;;1.30;0.90;;;;;;;19.37;42.73;99545.05;443982;1278;144143;-60
2022/07/07 19:16:08;;;;;;;5.30;1.30;;;;;;;19.28;43.15;99555.75;445471;1277;143410;-61
2022/07/07 19:26:14;;;;;;;6.40;1.30;;;;;;;19.19;43.61;99573.66;444636;1278;142222;-60
2022/07/07 19:36:19;;;;;;;9.60;1.30;;;;;;;19.12;44.05;99587.65;430247;1277;141560;-61
2022/07/07 19:46:25;;;;;;;2.70;1.50;;;;;;;19.05;44.15;99593.83;431539;1279;141287;-58
2022/07/07 19:56:40;;;;;;;5.10;1.60;;;;;;;18.98;44.53;99600.36;430082;1278;142158;-60
2022/07/07 20:06:46;;;;;;;4.60;1.70;;;;;;;18.89;45.05;99609.21;431669;1277;142341;-58
2022/07/07 20:16:52;;;;;;;5.50;1.60;;;;;;;18.84;45.99;99614.34;433336;1278;141509;-61
2022/07/07 20:26:58;;;;;;;2.40;1.50;;;;;;;18.78;46.48;99620.08;444351;1278;142206;-61
2022/07/07 20:37:04;;;;;;;3.00;1.40;;;;;;;18.76;46.67;99622.19;445119;1278;141699;-62
2022/07/07 20:47:11;;;;;;;3.60;1.80;;;;;;;18.69;47.39;99622.85;444392;1278;142183;-59
2022/07/07 20:57:18;;;;;;;3.70;1.90;;;;;;;18.56;48.31;99628.87;444434;1279;142428;-60
2022/07/07 21:07:24;;;;;;;3.90;1.10;;;;;;;18.47;49.26;99631.65;435254;1279;142114;-59
2022/07/07 21:17:30;;;;;;;1.90;1.00;;;;;;;18.33;49.95;99637.80;438000;1278;142784;-61
2022/07/07 21:27:36;;;;;;;3.10;1.20;;;;;;;18.14;50.84;99643.73;444811;1277;141480;-60
2022/07/07 21:37:42;;;;;;;1.80;1.30;;;;;;;17.98;51.26;99657.23;428988;1278;187231;-56
2022/07/07 21:47:48;;;;;;;1.00;0.90;;;;;;;17.89;51.64;99675.79;427305;1278;142099;-60
2022/07/07 21:57:54;;;;;;;1.80;1.40;;;;;;;17.79;51.87;99682.38;427694;1278;317156;-59
2022/07/07 22:08:00;;;;;;;3.10;1.20;;;;;;;17.70;51.89;99684.20;432484;1278;142287;-59
2022/07/07 22:18:07;;;;;;;2.20;1.40;;;;;;;17.64;52.17;99686.88;444521;1279;142155;-60
2022/07/07 22:28:13;;;;;;;1.60;0.80;;;;;;;17.68;51.66;99695.70;445001;1279;142298;-60
2022/07/07 22:38:18;;;;;;;2.30;0.90;;;;;;;17.74;51.38;99707.05;444487;1277;141924;-60
2022/07/07 22:48:24;;;;;;;2.30;1.10;;;;;;;17.74;51.77;99718.20;445186;1278;142622;-60
2022/07/07 22:58:31;;;;;;;2.40;1.40;;;;;;;17.69;52.37;99723.05;444457;1280;185690;-60
2022/07/07 23:08:37;;;;;;;4.20;2.30;;;;;;;17.63;53.25;99726.15;444554;1279;141286;-61
2022/07/07 23:18:43;;;;;;;1.80;1.50;;;;;;;17.49;53.39;99731.66;444744;1280;141392;-59
2022/07/07 23:28:49;;;;;;;2.20;1.70;;;;;;;17.40;53.70;99732.23;445227;1279;142592;-60
2022/07/07 23:38:55;;;;;;;4.30;1.90;;;;;;;17.29;54.20;99730.90;444466;1278;143327;-60
2022/07/07 23:49:01;;;;;;;1.80;1.70;;;;;;;17.16;54.92;99735.25;445232;1277;141616;-60
2022/07/07 23:59:06;;;;;;;2.20;2.00;;;;;;;17.04;55.50;99727.82;444411;1278;159509;-59
